Uruacu, Brazil
Current Conditions -  °F | °C
As of 2:00 AM on Saturday 20 Dec 2014 (Local Time) from SBAN Reporting Station
Scattered Clouds Scattered Clouds  
Wind Chill: 68°   Ceiling: Unl
Heat Index: 68°   Visibility: 6mi
Dew Point: 63°   Wind: 6mph
Humidity: 83%   Direction: 20°NNE
Pressure: 30"   Gusts: NA
Location:  14.52°S, 49.14°W
Report Text: SBAN 200400Z 02005KT 9999 FEW035 SCT090 20/17 Q1016
Loading
Personal Weather Stations






























Interactive Weather Map New forecast layout! Learn more

10-Day Weather Forecast

Advertisements
Track Severe Weather on mobile